createdAt,value
2023-05-04T00:00:05.308Z,958.13
2023-05-04T00:00:15.114Z,958.13
2023-05-04T00:00:25.116Z,958.12
2023-05-04T00:00:35.222Z,958.13
2023-05-04T00:00:45.117Z,958.13
2023-05-04T00:01:05.125Z,958.12
2023-05-04T00:01:15.116Z,958.12
2023-05-04T00:01:25.122Z,958.11
2023-05-04T00:01:35.125Z,958.11
2023-05-04T00:01:46.087Z,958.11
2023-05-04T00:01:55.118Z,958.11
2023-05-04T00:02:05.124Z,958.11
2023-05-04T00:02:15.193Z,958.11
2023-05-04T00:02:25.196Z,958.10
2023-05-04T00:02:35.193Z,958.09
2023-05-04T00:02:55.184Z,958.09
2023-05-04T00:03:05.272Z,958.09
2023-05-04T00:03:15.234Z,958.09
2023-05-04T00:03:25.286Z,958.09
2023-05-04T00:03:35.308Z,958.09
2023-05-04T00:03:45.382Z,958.09
2023-05-04T00:03:55.497Z,958.09
2023-05-04T00:04:15.214Z,958.09
2023-05-04T00:04:25.214Z,958.09
2023-05-04T00:04:35.150Z,958.09
2023-05-04T00:04:45.209Z,958.08
2023-05-04T00:04:55.239Z,958.07
2023-05-04T00:05:05.147Z,958.07
2023-05-04T00:05:15.135Z,958.07
2023-05-04T00:05:25.171Z,958.07
2023-05-04T00:05:35.149Z,958.07
2023-05-04T00:05:45.141Z,958.07
2023-05-04T00:05:55.137Z,958.07
2023-05-04T00:06:05.140Z,958.07
2023-05-04T00:06:15.145Z,958.07
2023-05-04T00:06:35.144Z,958.05
2023-05-04T00:06:45.148Z,958.05
2023-05-04T00:06:55.153Z,958.04
2023-05-04T00:07:05.164Z,958.04
2023-05-04T00:07:15.147Z,958.05
2023-05-04T00:07:25.149Z,958.05
2023-05-04T00:07:35.154Z,958.05
2023-05-04T00:07:45.151Z,958.05
2023-05-04T00:07:55.157Z,958.05
2023-05-04T00:08:05.150Z,958.05
2023-05-04T00:08:15.151Z,958.04
2023-05-04T00:08:25.167Z,958.05
2023-05-04T00:08:35.153Z,958.05
2023-05-04T00:08:45.167Z,958.06
2023-05-04T00:08:55.164Z,958.06
2023-05-04T00:09:05.158Z,958.07
2023-05-04T00:09:15.166Z,958.07
2023-05-04T00:09:35.162Z,958.07
2023-05-04T00:09:45.160Z,958.06
2023-05-04T00:09:55.158Z,958.06
2023-05-04T00:10:05.466Z,958.05
2023-05-04T00:10:15.165Z,958.04
2023-05-04T00:10:25.160Z,958.04
2023-05-04T00:10:35.164Z,958.04
2023-05-04T00:10:45.178Z,958.05
2023-05-04T00:10:55.178Z,958.05
2023-05-04T00:11:05.194Z,958.05
2023-05-04T00:11:15.194Z,958.05
2023-05-04T00:11:25.166Z,958.05
2023-05-04T00:11:35.168Z,958.05
2023-05-04T00:11:45.173Z,958.04
2023-05-04T00:11:55.189Z,958.04
2023-05-04T00:12:05.178Z,958.04
2023-05-04T00:12:15.177Z,958.04
2023-05-04T00:12:25.172Z,958.05
2023-05-04T00:12:35.201Z,958.05
2023-05-04T00:12:45.217Z,958.05
2023-05-04T00:12:55.238Z,958.04
2023-05-04T00:13:05.196Z,958.03
2023-05-04T00:13:15.268Z,958.03
2023-05-04T00:13:25.186Z,958.03
2023-05-04T00:13:35.186Z,958.03
2023-05-04T00:13:45.182Z,958.03
2023-05-04T00:13:55.185Z,958.04
2023-05-04T00:14:05.189Z,958.04
2023-05-04T00:14:15.198Z,958.03
2023-05-04T00:14:35.183Z,958.03
2023-05-04T00:14:45.191Z,958.03
2023-05-04T00:14:55.188Z,958.03
2023-05-04T00:15:05.195Z,958.03
2023-05-04T00:15:15.192Z,958.03
2023-05-04T00:15:25.195Z,958.03
2023-05-04T00:15:35.201Z,958.03
2023-05-04T00:15:45.237Z,958.03
2023-05-04T00:16:05.234Z,958.02
2023-05-04T00:16:15.259Z,958.02
2023-05-04T00:16:25.236Z,958.01
2023-05-04T00:16:35.227Z,958.01
2023-05-04T00:16:45.256Z,958.01
2023-05-04T00:16:55.196Z,958.01
2023-05-04T00:17:05.198Z,958.01
2023-05-04T00:17:15.240Z,958.01
2023-05-04T00:17:25.228Z,958.01
2023-05-04T00:17:35.241Z,958.01
2023-05-04T00:17:45.287Z,958.01
2023-05-04T00:17:55.255Z,958.01
2023-05-04T00:18:05.253Z,958.00
2023-05-04T00:18:15.223Z,958.00
2023-05-04T00:18:25.221Z,958.00
2023-05-04T00:18:35.202Z,958.00
2023-05-04T00:18:45.218Z,958.00
2023-05-04T00:19:05.210Z,957.99
2023-05-04T00:19:15.228Z,957.99
2023-05-04T00:19:25.220Z,957.99
2023-05-04T00:19:35.209Z,957.99
2023-05-04T00:19:45.211Z,957.98
2023-05-04T00:19:55.210Z,957.98
2023-05-04T00:20:05.449Z,957.98
2023-05-04T00:20:15.231Z,957.98
2023-05-04T00:20:25.215Z,957.97
2023-05-04T00:20:35.251Z,957.97
2023-05-04T00:20:45.220Z,957.97
2023-05-04T00:20:55.238Z,957.97
2023-05-04T00:21:05.217Z,957.97
2023-05-04T00:21:15.252Z,957.97
2023-05-04T00:21:25.226Z,957.97
2023-05-04T00:21:35.226Z,957.98
2023-05-04T00:21:45.222Z,957.98
2023-05-04T00:21:55.225Z,957.98
2023-05-04T00:22:05.225Z,957.98
2023-05-04T00:22:15.241Z,957.97
2023-05-04T00:22:25.222Z,957.97
2023-05-04T00:22:35.227Z,957.97
2023-05-04T00:22:45.224Z,957.96
2023-05-04T00:22:55.225Z,957.95
2023-05-04T00:23:05.225Z,957.95
2023-05-04T00:23:15.227Z,957.94
2023-05-04T00:23:25.248Z,957.94
2023-05-04T00:23:35.229Z,957.94
2023-05-04T00:23:45.229Z,957.93
2023-05-04T00:23:55.240Z,957.93
2023-05-04T00:24:05.237Z,957.94
2023-05-04T00:24:15.234Z,957.94
2023-05-04T00:24:35.237Z,957.93
2023-05-04T00:24:45.251Z,957.94
2023-05-04T00:24:55.234Z,957.94
2023-05-04T00:25:05.249Z,957.94
2023-05-04T00:25:15.242Z,957.93
2023-05-04T00:25:25.238Z,957.93
2023-05-04T00:25:35.239Z,957.93
2023-05-04T00:25:45.249Z,957.92
2023-05-04T00:25:55.271Z,957.92
2023-05-04T00:26:05.258Z,957.92
2023-05-04T00:26:15.258Z,957.92
2023-05-04T00:26:25.239Z,957.92
2023-05-04T00:26:35.246Z,957.93
2023-05-04T00:26:45.241Z,957.93
2023-05-04T00:26:55.251Z,957.92
2023-05-04T00:27:15.249Z,957.91
2023-05-04T00:27:25.246Z,957.91
2023-05-04T00:27:35.244Z,957.91
2023-05-04T00:27:45.247Z,957.90
2023-05-04T00:27:55.268Z,957.90
2023-05-04T00:28:05.282Z,957.90
2023-05-04T00:28:15.250Z,957.89
2023-05-04T00:28:25.264Z,957.89
2023-05-04T00:28:35.257Z,957.89
2023-05-04T00:28:46.092Z,957.89
2023-05-04T00:28:55.249Z,957.89
2023-05-04T00:29:05.255Z,957.89
2023-05-04T00:29:15.252Z,957.88
2023-05-04T00:29:35.257Z,957.88
2023-05-04T00:29:45.261Z,957.88
2023-05-04T00:29:55.257Z,957.87
2023-05-04T00:30:05.452Z,957.86
2023-05-04T00:30:15.268Z,957.87
2023-05-04T00:30:25.266Z,957.87
2023-05-04T00:30:35.262Z,957.88
2023-05-04T00:30:45.262Z,957.88
2023-05-04T00:30:55.271Z,957.88
2023-05-04T00:31:05.266Z,957.88
2023-05-04T00:31:15.289Z,957.87
2023-05-04T00:31:25.299Z,957.87
2023-05-04T00:31:35.295Z,957.87
2023-05-04T00:31:45.291Z,957.87
2023-05-04T00:32:05.455Z,957.86
2023-05-04T00:32:15.269Z,957.86
2023-05-04T00:32:25.280Z,957.86
2023-05-04T00:32:35.289Z,957.85
2023-05-04T00:32:45.369Z,957.85
2023-05-04T00:32:55.343Z,957.85
2023-05-04T00:33:15.275Z,957.84
2023-05-04T00:33:25.295Z,957.84
2023-05-04T00:33:35.285Z,957.84
2023-05-04T00:33:45.275Z,957.84
2023-05-04T00:33:55.299Z,957.83
2023-05-04T00:34:05.299Z,957.83
2023-05-04T00:34:15.277Z,957.83
2023-05-04T00:34:35.290Z,957.83
2023-05-04T00:34:45.277Z,957.83
2023-05-04T00:34:55.289Z,957.83
2023-05-04T00:35:05.288Z,957.82
2023-05-04T00:35:15.287Z,957.82
2023-05-04T00:35:25.304Z,957.82
2023-05-04T00:35:35.293Z,957.82
2023-05-04T00:35:45.286Z,957.82
2023-05-04T00:35:55.307Z,957.82
2023-05-04T00:36:05.297Z,957.82
2023-05-04T00:36:15.291Z,957.82
2023-05-04T00:36:25.285Z,957.82
2023-05-04T00:36:35.292Z,957.82
2023-05-04T00:36:45.301Z,957.82
2023-05-04T00:36:55.302Z,957.82
2023-05-04T00:37:05.297Z,957.81
2023-05-04T00:37:15.301Z,957.82
2023-05-04T00:37:25.294Z,957.82
2023-05-04T00:37:35.306Z,957.82
2023-05-04T00:37:45.296Z,957.82
2023-05-04T00:37:55.298Z,957.82
2023-05-04T00:38:05.302Z,957.82
2023-05-04T00:38:15.309Z,957.81
2023-05-04T00:38:25.312Z,957.80
2023-05-04T00:38:35.301Z,957.80
2023-05-04T00:38:45.306Z,957.80
2023-05-04T00:38:55.330Z,957.80
2023-05-04T00:39:05.302Z,957.81
2023-05-04T00:39:15.305Z,957.81
2023-05-04T00:39:25.327Z,957.81
2023-05-04T00:39:35.327Z,957.80
2023-05-04T00:39:45.312Z,957.80
2023-05-04T00:39:55.304Z,957.80
2023-05-04T00:40:05.532Z,957.80
2023-05-04T00:40:15.324Z,957.81
2023-05-04T00:40:35.321Z,957.81
2023-05-04T00:40:45.309Z,957.81
2023-05-04T00:40:55.311Z,957.80
2023-05-04T00:41:05.330Z,957.80
2023-05-04T00:41:15.305Z,957.80
2023-05-04T00:41:25.334Z,957.80
2023-05-04T00:41:35.309Z,957.80
2023-05-04T00:41:45.319Z,957.79
2023-05-04T00:41:55.337Z,957.79
2023-05-04T00:42:05.345Z,957.79
2023-05-04T00:42:15.330Z,957.78
2023-05-04T00:42:25.338Z,957.78
2023-05-04T00:42:35.319Z,957.78
2023-05-04T00:42:45.328Z,957.77
2023-05-04T00:42:55.319Z,957.77
2023-05-04T00:43:15.318Z,957.76
2023-05-04T00:43:25.345Z,957.76
2023-05-04T00:43:35.320Z,957.75
2023-05-04T00:43:45.359Z,957.75
2023-05-04T00:43:55.328Z,957.75
2023-05-04T00:44:05.325Z,957.75
2023-05-04T00:44:15.320Z,957.75
2023-05-04T00:44:35.328Z,957.74
2023-05-04T00:44:45.339Z,957.74
2023-05-04T00:44:55.333Z,957.74
2023-05-04T00:45:05.322Z,957.74
2023-05-04T00:45:15.336Z,957.74
2023-05-04T00:45:25.337Z,957.74
2023-05-04T00:45:35.333Z,957.74
2023-05-04T00:45:45.335Z,957.74
2023-05-04T00:45:55.335Z,957.73
2023-05-04T00:46:05.349Z,957.73
2023-05-04T00:46:15.368Z,957.73
2023-05-04T00:46:25.355Z,957.73
2023-05-04T00:46:35.381Z,957.73
2023-05-04T00:46:45.374Z,957.73
2023-05-04T00:46:55.416Z,957.73
2023-05-04T00:47:15.430Z,957.72
2023-05-04T00:47:25.431Z,957.71
2023-05-04T00:47:35.425Z,957.71
2023-05-04T00:47:45.353Z,957.70
2023-05-04T00:47:55.367Z,957.70
2023-05-04T00:48:05.424Z,957.71
2023-05-04T00:48:15.379Z,957.71
2023-05-04T00:48:25.391Z,957.71
2023-05-04T00:48:45.353Z,957.72
2023-05-04T00:48:55.377Z,957.72
2023-05-04T00:49:05.363Z,957.71
2023-05-04T00:49:15.351Z,957.71
2023-05-04T00:49:25.359Z,957.71
2023-05-04T00:49:35.352Z,957.71
2023-05-04T00:49:45.358Z,957.72
2023-05-04T00:49:55.372Z,957.72
2023-05-04T00:50:05.624Z,957.72
2023-05-04T00:50:15.357Z,957.72
2023-05-04T00:50:25.365Z,957.71
2023-05-04T00:50:35.364Z,957.70
2023-05-04T00:50:45.359Z,957.70
2023-05-04T00:50:55.361Z,957.70
2023-05-04T00:51:05.363Z,957.69
2023-05-04T00:51:15.360Z,957.69
2023-05-04T00:51:25.368Z,957.69
2023-05-04T00:51:35.382Z,957.69
2023-05-04T00:51:45.366Z,957.69
2023-05-04T00:51:55.377Z,957.68
2023-05-04T00:52:05.411Z,957.68
2023-05-04T00:52:15.363Z,957.67
2023-05-04T00:52:25.370Z,957.67
2023-05-04T00:52:35.370Z,957.67
2023-05-04T00:52:55.372Z,957.67
2023-05-04T00:53:05.370Z,957.66
2023-05-04T00:53:15.376Z,957.66
2023-05-04T00:53:25.376Z,957.66
2023-05-04T00:53:35.385Z,957.66
2023-05-04T00:53:45.369Z,957.66
2023-05-04T00:53:55.382Z,957.65
2023-05-04T00:54:05.395Z,957.65
2023-05-04T00:54:15.393Z,957.64
2023-05-04T00:54:25.386Z,957.63
2023-05-04T00:54:45.382Z,957.62
2023-05-04T00:54:55.378Z,957.62
2023-05-04T00:55:05.442Z,957.62
2023-05-04T00:55:15.382Z,957.62
2023-05-04T00:55:25.384Z,957.61
2023-05-04T00:55:35.385Z,957.61
2023-05-04T00:55:45.392Z,957.60
2023-05-04T00:55:55.387Z,957.60
2023-05-04T00:56:05.388Z,957.60
2023-05-04T00:56:15.392Z,957.59
2023-05-04T00:56:25.392Z,957.59
2023-05-04T00:56:35.393Z,957.59
2023-05-04T00:56:45.386Z,957.59
2023-05-04T00:56:55.393Z,957.59
2023-05-04T00:57:05.386Z,957.59
2023-05-04T00:57:15.395Z,957.59
2023-05-04T00:57:35.438Z,957.59
2023-05-04T00:57:45.400Z,957.58
2023-05-04T00:57:55.405Z,957.58
2023-05-04T00:58:05.415Z,957.58
2023-05-04T00:58:15.422Z,957.57
2023-05-04T00:58:25.430Z,957.57
2023-05-04T00:58:45.401Z,957.56
2023-05-04T00:58:55.406Z,957.56
2023-05-04T00:59:05.396Z,957.55
2023-05-04T00:59:15.405Z,957.56
2023-05-04T00:59:25.438Z,957.56
2023-05-04T00:59:35.405Z,957.57
2023-05-04T00:59:55.409Z,957.57
2023-05-04T01:00:05.707Z,957.57
2023-05-04T01:00:15.404Z,957.56
2023-05-04T01:00:25.415Z,957.56
2023-05-04T01:00:35.402Z,957.56
2023-05-04T01:00:45.542Z,957.55
2023-05-04T01:00:55.423Z,957.55
2023-05-04T01:01:15.460Z,957.55
2023-05-04T01:01:25.469Z,957.55
2023-05-04T01:01:35.454Z,957.54
2023-05-04T01:01:45.417Z,957.55
2023-05-04T01:01:55.409Z,957.54
2023-05-04T01:02:05.463Z,957.54
2023-05-04T01:02:25.463Z,957.55
2023-05-04T01:02:35.482Z,957.55
2023-05-04T01:02:45.442Z,957.55
2023-05-04T01:02:55.441Z,957.55
2023-05-04T01:03:05.535Z,957.55
2023-05-04T01:03:15.519Z,957.55
2023-05-04T01:03:25.540Z,957.55
2023-05-04T01:03:35.478Z,957.55
2023-05-04T01:03:45.447Z,957.55
2023-05-04T01:03:55.488Z,957.55
2023-05-04T01:04:05.566Z,957.55
2023-05-04T01:04:15.469Z,957.55
2023-05-04T01:04:35.425Z,957.54
2023-05-04T01:04:45.431Z,957.54
2023-05-04T01:04:55.424Z,957.54
2023-05-04T01:05:05.460Z,957.54
2023-05-04T01:05:15.479Z,957.54
2023-05-04T01:05:25.431Z,957.54
2023-05-04T01:05:35.430Z,957.54
2023-05-04T01:05:45.432Z,957.55
2023-05-04T01:05:55.431Z,957.55
2023-05-04T01:06:06.082Z,957.56
2023-05-04T01:06:15.439Z,957.56
2023-05-04T01:06:25.429Z,957.56
2023-05-04T01:06:35.440Z,957.56
2023-05-04T01:06:45.461Z,957.56
2023-05-04T01:06:55.433Z,957.56
2023-05-04T01:07:05.468Z,957.56
2023-05-04T01:07:15.438Z,957.56
2023-05-04T01:07:25.438Z,957.56
2023-05-04T01:07:35.451Z,957.57
2023-05-04T01:07:45.438Z,957.56
2023-05-04T01:07:55.438Z,957.57
2023-05-04T01:08:05.477Z,957.56
2023-05-04T01:08:15.467Z,957.56
2023-05-04T01:08:25.461Z,957.56
2023-05-04T01:08:35.445Z,957.56
2023-05-04T01:08:45.449Z,957.56
2023-05-04T01:08:55.469Z,957.56
2023-05-04T01:09:05.456Z,957.56
2023-05-04T01:09:15.447Z,957.56
2023-05-04T01:09:35.450Z,957.56
2023-05-04T01:09:45.448Z,957.56
2023-05-04T01:09:55.453Z,957.55
2023-05-04T01:10:05.821Z,957.56
2023-05-04T01:10:15.448Z,957.56
2023-05-04T01:10:25.460Z,957.56
2023-05-04T01:10:35.454Z,957.56
2023-05-04T01:10:45.457Z,957.56
2023-05-04T01:10:55.465Z,957.56
2023-05-04T01:11:05.470Z,957.57
2023-05-04T01:11:15.462Z,957.57
2023-05-04T01:11:25.462Z,957.57
2023-05-04T01:11:35.478Z,957.57
2023-05-04T01:11:45.464Z,957.57
2023-05-04T01:11:55.463Z,957.57
2023-05-04T01:12:15.456Z,957.57
2023-05-04T01:12:25.461Z,957.57
2023-05-04T01:12:35.564Z,957.57
2023-05-04T01:12:45.477Z,957.57
2023-05-04T01:12:55.501Z,957.57
2023-05-04T01:13:05.535Z,957.57
2023-05-04T01:13:15.684Z,957.57
2023-05-04T01:13:25.476Z,957.57
2023-05-04T01:13:35.459Z,957.57
2023-05-04T01:13:45.464Z,957.57
2023-05-04T01:13:55.462Z,957.57
2023-05-04T01:14:05.480Z,957.57
2023-05-04T01:14:15.499Z,957.57
2023-05-04T01:14:35.479Z,957.57
2023-05-04T01:14:45.466Z,957.58
2023-05-04T01:14:55.473Z,957.58
2023-05-04T01:15:05.468Z,957.57
2023-05-04T01:15:15.503Z,957.57
2023-05-04T01:15:25.478Z,957.57
2023-05-04T01:15:35.479Z,957.57
2023-05-04T01:15:45.470Z,957.57
2023-05-04T01:15:55.472Z,957.57
2023-05-04T01:16:05.471Z,957.56
2023-05-04T01:16:25.527Z,957.57
2023-05-04T01:16:35.529Z,957.57
2023-05-04T01:16:45.508Z,957.57
2023-05-04T01:16:55.538Z,957.56
2023-05-04T01:17:05.606Z,957.56
2023-05-04T01:17:15.490Z,957.57
2023-05-04T01:17:35.537Z,957.56
2023-05-04T01:17:45.500Z,957.57
2023-05-04T01:17:55.523Z,957.56
2023-05-04T01:18:05.559Z,957.56
2023-05-04T01:18:15.538Z,957.56
2023-05-04T01:18:25.530Z,957.56
2023-05-04T01:18:35.489Z,957.55
2023-05-04T01:18:45.491Z,957.55
2023-05-04T01:18:55.495Z,957.55
2023-05-04T01:19:05.490Z,957.55
2023-05-04T01:19:15.511Z,957.54
2023-05-04T01:19:35.499Z,957.54
2023-05-04T01:19:45.499Z,957.54
2023-05-04T01:19:55.492Z,957.54
2023-05-04T01:20:05.908Z,957.54
2023-05-04T01:20:15.490Z,957.55
2023-05-04T01:20:25.497Z,957.55
2023-05-04T01:20:35.498Z,957.55
2023-05-04T01:20:45.527Z,957.55
2023-05-04T01:20:55.495Z,957.54
2023-05-04T01:21:05.503Z,957.54
2023-05-04T01:21:15.511Z,957.54
2023-05-04T01:21:25.497Z,957.54
2023-05-04T01:21:35.525Z,957.53
2023-05-04T01:21:45.500Z,957.53
2023-05-04T01:21:55.499Z,957.53
2023-05-04T01:22:05.513Z,957.53
2023-05-04T01:22:15.508Z,957.53
2023-05-04T01:22:25.498Z,957.53
2023-05-04T01:22:35.501Z,957.53
2023-05-04T01:22:45.512Z,957.53
2023-05-04T01:22:55.517Z,957.53
2023-05-04T01:23:05.495Z,957.53
2023-05-04T01:23:15.509Z,957.53
2023-05-04T01:23:25.522Z,957.53
2023-05-04T01:23:35.527Z,957.53
2023-05-04T01:23:45.515Z,957.53
2023-05-04T01:23:55.524Z,957.53
2023-05-04T01:24:05.508Z,957.54
2023-05-04T01:24:15.517Z,957.54
2023-05-04T01:24:35.517Z,957.54
2023-05-04T01:24:45.521Z,957.54
2023-05-04T01:24:55.513Z,957.54
2023-05-04T01:25:05.519Z,957.53
2023-05-04T01:25:15.523Z,957.53
2023-05-04T01:25:25.523Z,957.53
2023-05-04T01:25:35.521Z,957.53
2023-05-04T01:25:45.523Z,957.54
2023-05-04T01:25:55.526Z,957.54
2023-05-04T01:26:05.524Z,957.54
2023-05-04T01:26:15.529Z,957.54
2023-05-04T01:26:25.550Z,957.55
2023-05-04T01:26:35.524Z,957.54
2023-05-04T01:26:45.528Z,957.54
2023-05-04T01:26:55.529Z,957.54
2023-05-04T01:27:05.543Z,957.54
2023-05-04T01:27:15.556Z,957.54
2023-05-04T01:27:35.540Z,957.54
2023-05-04T01:27:45.532Z,957.54
2023-05-04T01:27:55.532Z,957.54
2023-05-04T01:28:05.539Z,957.54
2023-05-04T01:28:15.541Z,957.54
2023-05-04T01:28:25.550Z,957.54
2023-05-04T01:28:35.545Z,957.54
2023-05-04T01:28:45.535Z,957.54
2023-05-04T01:28:55.564Z,957.53
2023-05-04T01:29:05.552Z,957.53
2023-05-04T01:29:15.560Z,957.53
2023-05-04T01:29:35.546Z,957.52
2023-05-04T01:29:45.551Z,957.52
2023-05-04T01:29:55.551Z,957.52
2023-05-04T01:30:05.904Z,957.51
2023-05-04T01:30:15.559Z,957.51
2023-05-04T01:30:25.550Z,957.51
2023-05-04T01:30:35.587Z,957.51
2023-05-04T01:30:45.572Z,957.51
2023-05-04T01:30:55.603Z,957.50
2023-05-04T01:31:05.566Z,957.50
2023-05-04T01:31:15.625Z,957.50
2023-05-04T01:31:25.635Z,957.50
2023-05-04T01:31:35.563Z,957.50
2023-05-04T01:31:45.556Z,957.49
2023-05-04T01:31:55.559Z,957.49
2023-05-04T01:32:05.595Z,957.49
2023-05-04T01:32:15.558Z,957.48
2023-05-04T01:32:25.589Z,957.48
2023-05-04T01:32:45.610Z,957.47
2023-05-04T01:32:55.610Z,957.46
2023-05-04T01:33:05.613Z,957.46
2023-05-04T01:33:15.575Z,957.46
2023-05-04T01:33:25.571Z,957.46
2023-05-04T01:33:35.571Z,957.45
2023-05-04T01:33:45.582Z,957.45
2023-05-04T01:33:55.562Z,957.45
2023-05-04T01:34:05.569Z,957.44
2023-05-04T01:34:15.568Z,957.44
2023-05-04T01:34:35.570Z,957.44
2023-05-04T01:34:45.577Z,957.44
2023-05-04T01:34:55.583Z,957.43
2023-05-04T01:35:05.581Z,957.43
2023-05-04T01:35:15.571Z,957.43
2023-05-04T01:35:25.587Z,957.43
2023-05-04T01:35:35.592Z,957.42
2023-05-04T01:35:45.592Z,957.42
2023-05-04T01:35:55.578Z,957.42
2023-05-04T01:36:05.578Z,957.41
2023-05-04T01:36:25.583Z,957.40
2023-05-04T01:36:35.595Z,957.40
2023-05-04T01:36:45.584Z,957.41
2023-05-04T01:36:55.582Z,957.40
2023-05-04T01:37:05.580Z,957.40
2023-05-04T01:37:15.594Z,957.40
2023-05-04T01:37:25.578Z,957.40
2023-05-04T01:37:35.605Z,957.40
2023-05-04T01:37:45.578Z,957.40
2023-05-04T01:37:55.681Z,957.40
2023-05-04T01:38:05.583Z,957.40
2023-05-04T01:38:15.589Z,957.39
2023-05-04T01:38:25.619Z,957.39
2023-05-04T01:38:35.616Z,957.39
2023-05-04T01:38:45.588Z,957.39
2023-05-04T01:39:05.587Z,957.39
2023-05-04T01:39:15.590Z,957.39
2023-05-04T01:39:25.586Z,957.39
2023-05-04T01:39:35.593Z,957.40
2023-05-04T01:39:45.598Z,957.41
2023-05-04T01:39:55.595Z,957.40
2023-05-04T01:40:05.949Z,957.40
2023-05-04T01:40:15.598Z,957.40
2023-05-04T01:40:25.597Z,957.40
2023-05-04T01:40:45.597Z,957.39
2023-05-04T01:40:55.599Z,957.39
2023-05-04T01:41:05.594Z,957.39
2023-05-04T01:41:15.597Z,957.38
2023-05-04T01:41:25.597Z,957.39
2023-05-04T01:41:35.598Z,957.39
2023-05-04T01:41:45.601Z,957.39
2023-05-04T01:41:56.100Z,957.40
2023-05-04T01:42:05.606Z,957.39
2023-05-04T01:42:15.602Z,957.39
2023-05-04T01:42:25.620Z,957.39
2023-05-04T01:42:35.596Z,957.39
2023-05-04T01:42:45.604Z,957.40
2023-05-04T01:43:05.610Z,957.40
2023-05-04T01:43:15.621Z,957.40
2023-05-04T01:43:25.647Z,957.41
2023-05-04T01:43:35.609Z,957.40
2023-05-04T01:43:45.601Z,957.41
2023-05-04T01:43:55.602Z,957.41
2023-05-04T01:44:05.622Z,957.41
2023-05-04T01:44:15.656Z,957.42
2023-05-04T01:44:35.619Z,957.42
2023-05-04T01:44:45.617Z,957.43
2023-05-04T01:44:55.611Z,957.43
2023-05-04T01:45:05.621Z,957.43
2023-05-04T01:45:15.622Z,957.43
2023-05-04T01:45:25.609Z,957.43
2023-05-04T01:45:35.613Z,957.43
2023-05-04T01:45:45.620Z,957.43
2023-05-04T01:45:55.658Z,957.43
2023-05-04T01:46:05.635Z,957.44
2023-05-04T01:46:15.695Z,957.44
2023-05-04T01:46:25.646Z,957.44
2023-05-04T01:46:35.731Z,957.44
2023-05-04T01:46:45.700Z,957.44
2023-05-04T01:46:55.648Z,957.44
2023-05-04T01:47:05.628Z,957.44
2023-05-04T01:47:15.626Z,957.44
2023-05-04T01:47:25.708Z,957.45
2023-05-04T01:47:35.681Z,957.45
2023-05-04T01:47:55.700Z,957.45
2023-05-04T01:48:05.663Z,957.45
2023-05-04T01:48:15.631Z,957.45
2023-05-04T01:48:26.411Z,957.45
2023-05-04T01:48:35.645Z,957.45
2023-05-04T01:48:45.632Z,957.45
2023-05-04T01:48:55.635Z,957.45
2023-05-04T01:49:05.633Z,957.45
2023-05-04T01:49:15.630Z,957.44
2023-05-04T01:49:25.636Z,957.44
2023-05-04T01:49:45.629Z,957.45
2023-05-04T01:49:55.641Z,957.45
2023-05-04T01:50:05.921Z,957.45
2023-05-04T01:50:16.609Z,957.46
2023-05-04T01:50:25.661Z,957.46
2023-05-04T01:50:35.635Z,957.46
2023-05-04T01:50:45.643Z,957.46
2023-05-04T01:50:55.641Z,957.46
2023-05-04T01:51:05.667Z,957.46
2023-05-04T01:51:25.642Z,957.46
2023-05-04T01:51:35.651Z,957.46
2023-05-04T01:51:45.642Z,957.46
2023-05-04T01:51:55.646Z,957.46
2023-05-04T01:52:05.647Z,957.46
2023-05-04T01:52:15.640Z,957.46
2023-05-04T01:52:25.643Z,957.46
2023-05-04T01:52:35.648Z,957.46
2023-05-04T01:52:45.645Z,957.46
2023-05-04T01:52:55.665Z,957.46
2023-05-04T01:53:05.650Z,957.45
2023-05-04T01:53:15.650Z,957.46
2023-05-04T01:53:25.651Z,957.46
2023-05-04T01:53:35.652Z,957.46
2023-05-04T01:53:45.649Z,957.46
2023-05-04T01:53:55.651Z,957.45
2023-05-04T01:54:05.657Z,957.45
2023-05-04T01:54:15.656Z,957.45
2023-05-04T01:54:25.664Z,957.44
2023-05-04T01:54:35.656Z,957.44
2023-05-04T01:54:45.652Z,957.44
2023-05-04T01:54:55.658Z,957.44
2023-05-04T01:55:05.656Z,957.43
2023-05-04T01:55:15.660Z,957.43
2023-05-04T01:55:25.665Z,957.42
2023-05-04T01:55:35.661Z,957.42
2023-05-04T01:55:45.665Z,957.43
2023-05-04T01:55:55.675Z,957.43
2023-05-04T01:56:05.658Z,957.42
2023-05-04T01:56:15.666Z,957.43
2023-05-04T01:56:25.670Z,957.43
2023-05-04T01:56:35.668Z,957.43
2023-05-04T01:56:45.667Z,957.43
2023-05-04T01:56:55.665Z,957.43
2023-05-04T01:57:05.675Z,957.43
2023-05-04T01:57:15.667Z,957.43
2023-05-04T01:57:25.679Z,957.43
2023-05-04T01:57:35.666Z,957.43
2023-05-04T01:57:45.669Z,957.43
2023-05-04T01:57:55.677Z,957.42
2023-05-04T01:58:05.676Z,957.42
2023-05-04T01:58:15.672Z,957.43
2023-05-04T01:58:25.675Z,957.43
2023-05-04T01:58:35.690Z,957.43
2023-05-04T01:58:45.672Z,957.43
2023-05-04T01:58:55.692Z,957.43
2023-05-04T01:59:05.676Z,957.43
2023-05-04T01:59:15.674Z,957.43
2023-05-04T01:59:25.680Z,957.43
2023-05-04T01:59:35.693Z,957.42
2023-05-04T01:59:45.681Z,957.42
2023-05-04T01:59:55.682Z,957.42
2023-05-04T02:00:06.135Z,957.42
2023-05-04T02:00:15.692Z,957.42
2023-05-04T02:00:25.681Z,957.43
2023-05-04T02:00:35.681Z,957.43
2023-05-04T02:00:45.685Z,957.43
2023-05-04T02:00:55.706Z,957.42
2023-05-04T02:01:05.686Z,957.43
2023-05-04T02:01:15.732Z,957.43
2023-05-04T02:01:25.770Z,957.43
2023-05-04T02:01:35.706Z,957.43
2023-05-04T02:01:45.767Z,957.43
2023-05-04T02:01:55.825Z,957.43
2023-05-04T02:02:05.767Z,957.43
2023-05-04T02:02:15.706Z,957.43
2023-05-04T02:02:25.698Z,957.43
2023-05-04T02:02:35.769Z,957.43
2023-05-04T02:02:45.807Z,957.43
2023-05-04T02:03:05.779Z,957.43
2023-05-04T02:03:15.755Z,957.42
2023-05-04T02:03:25.812Z,957.42
2023-05-04T02:03:35.768Z,957.42
2023-05-04T02:03:45.808Z,957.42
2023-05-04T02:03:55.830Z,957.42
2023-05-04T02:04:05.785Z,957.42
2023-05-04T02:04:15.718Z,957.42
2023-05-04T02:04:25.703Z,957.42
2023-05-04T02:04:45.707Z,957.43
2023-05-04T02:04:55.713Z,957.43
2023-05-04T02:05:05.704Z,957.42
2023-05-04T02:05:15.708Z,957.42
2023-05-04T02:05:25.720Z,957.42
2023-05-04T02:05:35.702Z,957.42
2023-05-04T02:05:45.716Z,957.41
2023-05-04T02:05:55.716Z,957.41
2023-05-04T02:06:05.709Z,957.41
2023-05-04T02:06:15.710Z,957.41
2023-05-04T02:06:25.714Z,957.41
2023-05-04T02:06:35.722Z,957.41
2023-05-04T02:06:45.716Z,957.41
2023-05-04T02:06:55.722Z,957.41
2023-05-04T02:07:15.715Z,957.41
2023-05-04T02:07:25.727Z,957.41
2023-05-04T02:07:35.721Z,957.41
2023-05-04T02:07:45.718Z,957.41
2023-05-04T02:07:55.731Z,957.40
2023-05-04T02:08:05.742Z,957.40
2023-05-04T02:08:15.731Z,957.40
2023-05-04T02:08:25.725Z,957.40
2023-05-04T02:08:35.735Z,957.41
2023-05-04T02:08:45.728Z,957.41
2023-05-04T02:08:55.729Z,957.41
2023-05-04T02:09:05.724Z,957.41
2023-05-04T02:09:15.733Z,957.41
2023-05-04T02:09:25.725Z,957.41
2023-05-04T02:09:45.730Z,957.40
2023-05-04T02:09:55.726Z,957.40
2023-05-04T02:10:05.957Z,957.39
2023-05-04T02:10:15.729Z,957.39
2023-05-04T02:10:25.730Z,957.40
2023-05-04T02:10:35.728Z,957.40
2023-05-04T02:10:45.734Z,957.40
2023-05-04T02:10:55.733Z,957.40
2023-05-04T02:11:05.733Z,957.39
2023-05-04T02:11:15.732Z,957.39
2023-05-04T02:11:25.745Z,957.39
2023-05-04T02:11:35.735Z,957.39
2023-05-04T02:11:55.737Z,957.38
2023-05-04T02:12:05.734Z,957.38
2023-05-04T02:12:15.747Z,957.38
2023-05-04T02:12:25.735Z,957.37
2023-05-04T02:12:35.817Z,957.38
2023-05-04T02:12:45.743Z,957.37
2023-05-04T02:12:55.768Z,957.37
2023-05-04T02:13:05.797Z,957.36
2023-05-04T02:13:15.867Z,957.36